sensor_id;sensor_type;location;lat;lon;timestamp;pressure;altitude;pressure_sealevel;temperature;humidity
38688;BME280;24444;53.216;-6.664;2022-08-21T00:01:11;100323.99;;;7.72;95.86
38688;BME280;24444;53.216;-6.664;2022-08-21T00:03:40;100321.88;;;7.77;96.54
38688;BME280;24444;53.216;-6.664;2022-08-21T00:06:08;100323.76;;;7.65;96.26
38688;BME280;24444;53.216;-6.664;2022-08-21T00:08:35;100323.99;;;7.93;94.94
38688;BME280;24444;53.216;-6.664;2022-08-21T00:11:04;100323.65;;;7.98;94.64
38688;BME280;24444;53.216;-6.664;2022-08-21T00:13:33;100322.45;;;8.45;93.60
38688;BME280;24444;53.216;-6.664;2022-08-21T00:16:02;100327.26;;;8.75;91.40
38688;BME280;24444;53.216;-6.664;2022-08-21T00:18:30;100327.21;;;9.16;90.47
38688;BME280;24444;53.216;-6.664;2022-08-21T00:20:57;100325.07;;;8.59;90.00
38688;BME280;24444;53.216;-6.664;2022-08-21T00:23:25;100326.51;;;8.85;90.40
38688;BME280;24444;53.216;-6.664;2022-08-21T00:25:52;100327.76;;;8.43;90.56
38688;BME280;24444;53.216;-6.664;2022-08-21T00:28:20;100327.12;;;8.09;90.95
38688;BME280;24444;53.216;-6.664;2022-08-21T00:30:48;100331.12;;;8.63;92.00
38688;BME280;24444;53.216;-6.664;2022-08-21T00:33:15;100329.85;;;8.96;91.98
38688;BME280;24444;53.216;-6.664;2022-08-21T00:35:43;100326.29;;;9.09;90.67
38688;BME280;24444;53.216;-6.664;2022-08-21T00:38:10;100326.10;;;8.37;90.88
38688;BME280;24444;53.216;-6.664;2022-08-21T00:40:44;100325.84;;;8.89;90.15
38688;BME280;24444;53.216;-6.664;2022-08-21T00:43:14;100324.12;;;8.91;89.17
38688;BME280;24444;53.216;-6.664;2022-08-21T00:45:42;100324.98;;;8.55;89.69
38688;BME280;24444;53.216;-6.664;2022-08-21T00:48:10;100320.40;;;8.58;88.59
38688;BME280;24444;53.216;-6.664;2022-08-21T00:50:43;100315.20;;;8.65;88.18
38688;BME280;24444;53.216;-6.664;2022-08-21T00:53:12;100316.17;;;8.86;88.56
38688;BME280;24444;53.216;-6.664;2022-08-21T00:55:41;100317.40;;;8.59;88.96
38688;BME280;24444;53.216;-6.664;2022-08-21T00:58:11;100320.13;;;8.61;88.83
38688;BME280;24444;53.216;-6.664;2022-08-21T01:00:42;100325.14;;;8.77;88.89
38688;BME280;24444;53.216;-6.664;2022-08-21T01:03:13;100327.21;;;8.62;88.73
38688;BME280;24444;53.216;-6.664;2022-08-21T01:05:42;100329.11;;;8.15;89.74
38688;BME280;24444;53.216;-6.664;2022-08-21T01:08:10;100327.81;;;8.32;89.42
38688;BME280;24444;53.216;-6.664;2022-08-21T01:10:39;100328.77;;;8.49;90.01
38688;BME280;24444;53.216;-6.664;2022-08-21T01:13:09;100331.84;;;8.32;89.28
38688;BME280;24444;53.216;-6.664;2022-08-21T01:15:40;100333.81;;;8.44;89.60
38688;BME280;24444;53.216;-6.664;2022-08-21T01:18:10;100335.81;;;7.67;92.56
38688;BME280;24444;53.216;-6.664;2022-08-21T01:20:41;100337.14;;;7.84;93.79
38688;BME280;24444;53.216;-6.664;2022-08-21T01:23:09;100335.30;;;7.67;94.92
38688;BME280;24444;53.216;-6.664;2022-08-21T01:25:37;100334.99;;;7.05;95.74
38688;BME280;24444;53.216;-6.664;2022-08-21T01:28:11;100330.73;;;7.56;95.67
38688;BME280;24444;53.216;-6.664;2022-08-21T01:30:40;100333.10;;;6.99;96.33
38688;BME280;24444;53.216;-6.664;2022-08-21T01:33:09;100333.01;;;7.04;97.37
38688;BME280;24444;53.216;-6.664;2022-08-21T01:35:37;100330.95;;;6.88;98.35
38688;BME280;24444;53.216;-6.664;2022-08-21T01:38:05;100329.37;;;7.12;97.86
38688;BME280;24444;53.216;-6.664;2022-08-21T01:40:32;100331.40;;;7.41;97.98
38688;BME280;24444;53.216;-6.664;2022-08-21T01:42:59;100334.62;;;7.57;97.67
38688;BME280;24444;53.216;-6.664;2022-08-21T01:45:27;100338.59;;;6.99;96.49
38688;BME280;24444;53.216;-6.664;2022-08-21T01:47:54;100337.91;;;7.37;96.79
38688;BME280;24444;53.216;-6.664;2022-08-21T01:50:23;100341.98;;;7.74;96.62
38688;BME280;24444;53.216;-6.664;2022-08-21T01:52:51;100344.00;;;6.77;97.46
38688;BME280;24444;53.216;-6.664;2022-08-21T01:55:20;100346.78;;;7.52;96.76
38688;BME280;24444;53.216;-6.664;2022-08-21T01:57:48;100346.48;;;7.46;96.67
38688;BME280;24444;53.216;-6.664;2022-08-21T02:00:18;100347.21;;;7.40;97.27
38688;BME280;24444;53.216;-6.664;2022-08-21T02:02:46;100343.61;;;7.31;97.34
38688;BME280;24444;53.216;-6.664;2022-08-21T02:05:13;100339.72;;;7.06;96.28
38688;BME280;24444;53.216;-6.664;2022-08-21T02:07:44;100340.27;;;7.32;97.89
38688;BME280;24444;53.216;-6.664;2022-08-21T02:10:16;100340.54;;;7.11;98.64
38688;BME280;24444;53.216;-6.664;2022-08-21T02:12:44;100339.44;;;7.18;98.38
38688;BME280;24444;53.216;-6.664;2022-08-21T02:15:12;100340.41;;;7.06;98.58
38688;BME280;24444;53.216;-6.664;2022-08-21T02:17:43;100336.27;;;6.99;98.69
38688;BME280;24444;53.216;-6.664;2022-08-21T02:20:17;100336.55;;;6.89;98.74
38688;BME280;24444;53.216;-6.664;2022-08-21T02:22:46;100336.26;;;7.16;97.99
38688;BME280;24444;53.216;-6.664;2022-08-21T02:25:14;100333.67;;;6.68;98.85
38688;BME280;24444;53.216;-6.664;2022-08-21T02:27:43;100333.93;;;6.51;99.36
38688;BME280;24444;53.216;-6.664;2022-08-21T02:30:12;100332.16;;;6.42;99.82
38688;BME280;24444;53.216;-6.664;2022-08-21T02:32:40;100328.71;;;6.41;99.48
38688;BME280;24444;53.216;-6.664;2022-08-21T02:35:09;100326.60;;;6.53;99.60
38688;BME280;24444;53.216;-6.664;2022-08-21T02:37:44;100331.58;;;6.87;98.47
38688;BME280;24444;53.216;-6.664;2022-08-21T02:40:18;100332.12;;;6.68;98.15
38688;BME280;24444;53.216;-6.664;2022-08-21T02:42:47;100329.60;;;6.26;99.15
38688;BME280;24444;53.216;-6.664;2022-08-21T02:45:15;100329.56;;;6.72;99.92
38688;BME280;24444;53.216;-6.664;2022-08-21T02:47:48;100331.73;;;6.48;100.00
38688;BME280;24444;53.216;-6.664;2022-08-21T02:50:18;100331.28;;;5.50;100.00
38688;BME280;24444;53.216;-6.664;2022-08-21T02:52:46;100327.79;;;5.68;100.00
38688;BME280;24444;53.216;-6.664;2022-08-21T02:55:15;100325.03;;;6.16;100.00
38688;BME280;24444;53.216;-6.664;2022-08-21T02:57:42;100323.22;;;6.86;98.35
38688;BME280;24444;53.216;-6.664;2022-08-21T03:00:11;100320.94;;;6.62;97.39
38688;BME280;24444;53.216;-6.664;2022-08-21T03:02:39;100316.86;;;7.25;95.44
38688;BME280;24444;53.216;-6.664;2022-08-21T03:05:08;100317.66;;;7.02;93.76
38688;BME280;24444;53.216;-6.664;2022-08-21T03:07:36;100317.22;;;6.54;96.26
38688;BME280;24444;53.216;-6.664;2022-08-21T03:10:04;100313.20;;;5.61;99.65
38688;BME280;24444;53.216;-6.664;2022-08-21T03:12:32;100311.70;;;5.54;100.00
38688;BME280;24444;53.216;-6.664;2022-08-21T03:15:00;100312.21;;;5.67;100.00
38688;BME280;24444;53.216;-6.664;2022-08-21T03:17:27;100312.93;;;5.54;100.00
38688;BME280;24444;53.216;-6.664;2022-08-21T03:19:55;100313.14;;;5.92;100.00
38688;BME280;24444;53.216;-6.664;2022-08-21T03:22:23;100312.19;;;5.80;100.00
38688;BME280;24444;53.216;-6.664;2022-08-21T03:24:50;100313.46;;;5.53;100.00
38688;BME280;24444;53.216;-6.664;2022-08-21T03:27:18;100314.10;;;6.04;100.00
38688;BME280;24444;53.216;-6.664;2022-08-21T03:29:45;100313.62;;;5.60;100.00
38688;BME280;24444;53.216;-6.664;2022-08-21T03:32:13;100317.16;;;5.89;100.00
38688;BME280;24444;53.216;-6.664;2022-08-21T03:34:40;100317.44;;;5.63;100.00
38688;BME280;24444;53.216;-6.664;2022-08-21T03:37:08;100319.59;;;5.51;100.00
38688;BME280;24444;53.216;-6.664;2022-08-21T03:39:35;100325.20;;;5.18;100.00
38688;BME280;24444;53.216;-6.664;2022-08-21T03:42:02;100329.80;;;5.19;100.00
38688;BME280;24444;53.216;-6.664;2022-08-21T03:44:30;100330.98;;;5.74;100.00
38688;BME280;24444;53.216;-6.664;2022-08-21T03:46:57;100337.46;;;5.77;100.00
38688;BME280;24444;53.216;-6.664;2022-08-21T03:49:25;100341.62;;;5.34;100.00
38688;BME280;24444;53.216;-6.664;2022-08-21T03:51:54;100338.76;;;4.99;100.00
38688;BME280;24444;53.216;-6.664;2022-08-21T03:54:21;100336.92;;;4.55;100.00
38688;BME280;24444;53.216;-6.664;2022-08-21T03:56:48;100335.53;;;5.31;100.00
38688;BME280;24444;53.216;-6.664;2022-08-21T03:59:15;100338.37;;;4.94;100.00
38688;BME280;24444;53.216;-6.664;2022-08-21T04:01:52;100342.93;;;4.98;100.00
38688;BME280;24444;53.216;-6.664;2022-08-21T04:04:19;100348.91;;;5.25;100.00
38688;BME280;24444;53.216;-6.664;2022-08-21T04:06:47;100350.53;;;5.52;100.00
38688;BME280;24444;53.216;-6.664;2022-08-21T04:09:14;100356.43;;;5.26;100.00
38688;BME280;24444;53.216;-6.664;2022-08-21T04:11:42;100361.97;;;5.10;100.00
38688;BME280;24444;53.216;-6.664;2022-08-21T04:14:10;100368.49;;;4.88;100.00
38688;BME280;24444;53.216;-6.664;2022-08-21T04:16:37;100369.16;;;4.94;100.00
38688;BME280;24444;53.216;-6.664;2022-08-21T04:19:04;100367.55;;;5.10;100.00
38688;BME280;24444;53.216;-6.664;2022-08-21T04:21:32;100368.48;;;5.40;100.00
38688;BME280;24444;53.216;-6.664;2022-08-21T04:23:59;100369.44;;;5.07;100.00
38688;BME280;24444;53.216;-6.664;2022-08-21T04:26:26;100371.49;;;4.82;100.00
38688;BME280;24444;53.216;-6.664;2022-08-21T04:28:54;100372.82;;;4.20;100.00
38688;BME280;24444;53.216;-6.664;2022-08-21T04:31:21;100374.17;;;4.33;100.00
38688;BME280;24444;53.216;-6.664;2022-08-21T04:33:48;100377.02;;;4.11;100.00
38688;BME280;24444;53.216;-6.664;2022-08-21T04:36:16;100377.78;;;4.36;100.00
38688;BME280;24444;53.216;-6.664;2022-08-21T04:38:43;100375.94;;;4.41;100.00
38688;BME280;24444;53.216;-6.664;2022-08-21T04:41:11;100370.46;;;4.94;100.00
38688;BME280;24444;53.216;-6.664;2022-08-21T04:43:39;100371.12;;;5.48;100.00
38688;BME280;24444;53.216;-6.664;2022-08-21T04:46:07;100376.77;;;5.66;100.00
38688;BME280;24444;53.216;-6.664;2022-08-21T04:48:34;100378.49;;;5.07;100.00
38688;BME280;24444;53.216;-6.664;2022-08-21T04:51:05;100381.86;;;5.46;100.00
38688;BME280;24444;53.216;-6.664;2022-08-21T04:53:38;100383.03;;;4.91;100.00
38688;BME280;24444;53.216;-6.664;2022-08-21T04:56:11;100382.16;;;5.05;100.00
38688;BME280;24444;53.216;-6.664;2022-08-21T04:58:39;100383.73;;;4.79;100.00
38688;BME280;24444;53.216;-6.664;2022-08-21T05:01:11;100383.29;;;4.88;100.00
38688;BME280;24444;53.216;-6.664;2022-08-21T05:03:41;100379.88;;;4.85;100.00
38688;BME280;24444;53.216;-6.664;2022-08-21T05:06:11;100380.79;;;4.44;100.00
38688;BME280;24444;53.216;-6.664;2022-08-21T05:08:41;100379.95;;;4.68;100.00
38688;BME280;24444;53.216;-6.664;2022-08-21T05:11:10;100381.68;;;4.24;100.00
38688;BME280;24444;53.216;-6.664;2022-08-21T05:13:37;100378.79;;;4.58;100.00
38688;BME280;24444;53.216;-6.664;2022-08-21T05:16:04;100383.40;;;4.40;100.00
38688;BME280;24444;53.216;-6.664;2022-08-21T05:18:31;100387.72;;;4.41;100.00
38688;BME280;24444;53.216;-6.664;2022-08-21T05:20:58;100390.12;;;4.49;100.00
38688;BME280;24444;53.216;-6.664;2022-08-21T05:23:26;100390.24;;;4.35;100.00
38688;BME280;24444;53.216;-6.664;2022-08-21T05:25:54;100392.45;;;4.41;100.00
38688;BME280;24444;53.216;-6.664;2022-08-21T05:28:21;100391.92;;;4.22;100.00
38688;BME280;24444;53.216;-6.664;2022-08-21T05:30:49;100389.26;;;4.10;100.00
38688;BME280;24444;53.216;-6.664;2022-08-21T05:33:17;100391.04;;;4.06;100.00
38688;BME280;24444;53.216;-6.664;2022-08-21T05:35:43;100394.89;;;4.32;100.00
38688;BME280;24444;53.216;-6.664;2022-08-21T05:38:11;100390.15;;;4.27;100.00
38688;BME280;24444;53.216;-6.664;2022-08-21T05:40:38;100388.28;;;4.23;100.00
38688;BME280;24444;53.216;-6.664;2022-08-21T05:43:05;100382.55;;;4.83;100.00
38688;BME280;24444;53.216;-6.664;2022-08-21T05:45:33;100382.31;;;4.70;100.00
38688;BME280;24444;53.216;-6.664;2022-08-21T05:48:06;100381.33;;;4.47;100.00
38688;BME280;24444;53.216;-6.664;2022-08-21T05:50:34;100378.29;;;4.62;100.00
38688;BME280;24444;53.216;-6.664;2022-08-21T05:53:02;100380.20;;;4.58;100.00
38688;BME280;24444;53.216;-6.664;2022-08-21T05:55:29;100386.45;;;4.86;100.00
38688;BME280;24444;53.216;-6.664;2022-08-21T05:57:57;100390.62;;;4.52;100.00
38688;BME280;24444;53.216;-6.664;2022-08-21T06:00:24;100395.40;;;5.03;100.00
38688;BME280;24444;53.216;-6.664;2022-08-21T06:02:51;100395.53;;;5.12;100.00
38688;BME280;24444;53.216;-6.664;2022-08-21T06:05:19;100397.59;;;5.38;99.52
38688;BME280;24444;53.216;-6.664;2022-08-21T06:07:46;100399.83;;;5.64;99.42
38688;BME280;24444;53.216;-6.664;2022-08-21T06:10:14;100400.08;;;5.67;98.36
38688;BME280;24444;53.216;-6.664;2022-08-21T06:12:41;100405.71;;;5.09;98.93
38688;BME280;24444;53.216;-6.664;2022-08-21T06:15:10;100409.38;;;4.92;100.00
38688;BME280;24444;53.216;-6.664;2022-08-21T06:17:38;100416.82;;;4.71;100.00
38688;BME280;24444;53.216;-6.664;2022-08-21T06:20:05;100419.52;;;5.46;100.00
38688;BME280;24444;53.216;-6.664;2022-08-21T06:22:33;100421.45;;;6.18;99.98
38688;BME280;24444;53.216;-6.664;2022-08-21T06:25:00;100420.90;;;6.69;96.99
38688;BME280;24444;53.216;-6.664;2022-08-21T06:27:27;100424.99;;;6.58;95.97
38688;BME280;24444;53.216;-6.664;2022-08-21T06:29:55;100425.62;;;5.61;96.86
38688;BME280;24444;53.216;-6.664;2022-08-21T06:32:23;100422.75;;;5.97;97.29
38688;BME280;24444;53.216;-6.664;2022-08-21T06:34:50;100423.17;;;6.04;97.10
38688;BME280;24444;53.216;-6.664;2022-08-21T06:37:18;100433.54;;;5.16;98.34
38688;BME280;24444;53.216;-6.664;2022-08-21T06:39:46;100436.70;;;4.70;100.00
38688;BME280;24444;53.216;-6.664;2022-08-21T06:42:14;100437.54;;;4.97;100.00
38688;BME280;24444;53.216;-6.664;2022-08-21T06:44:42;100441.93;;;5.16;100.00
38688;BME280;24444;53.216;-6.664;2022-08-21T06:47:10;100444.44;;;5.89;100.00
38688;BME280;24444;53.216;-6.664;2022-08-21T06:49:37;100439.97;;;6.97;98.57
38688;BME280;24444;53.216;-6.664;2022-08-21T06:52:08;100440.85;;;7.88;94.60
38688;BME280;24444;53.216;-6.664;2022-08-21T06:54:36;100441.56;;;8.09;91.60
38688;BME280;24444;53.216;-6.664;2022-08-21T06:57:04;100439.52;;;9.07;88.65
38688;BME280;24444;53.216;-6.664;2022-08-21T06:59:31;100440.27;;;9.11;86.04
38688;BME280;24444;53.216;-6.664;2022-08-21T07:01:59;100439.76;;;8.52;85.20
38688;BME280;24444;53.216;-6.664;2022-08-21T07:04:27;100438.49;;;8.75;84.91
38688;BME280;24444;53.216;-6.664;2022-08-21T07:06:55;100438.35;;;9.17;84.46
38688;BME280;24444;53.216;-6.664;2022-08-21T07:09:22;100437.75;;;10.41;78.22
38688;BME280;24444;53.216;-6.664;2022-08-21T07:11:53;100436.89;;;10.71;76.53
38688;BME280;24444;53.216;-6.664;2022-08-21T07:14:21;100433.39;;;9.64;74.98
38688;BME280;24444;53.216;-6.664;2022-08-21T07:16:48;100439.52;;;9.30;80.65
38688;BME280;24444;53.216;-6.664;2022-08-21T07:19:16;100446.00;;;10.36;78.23
38688;BME280;24444;53.216;-6.664;2022-08-21T07:21:43;100449.83;;;11.09;72.36
38688;BME280;24444;53.216;-6.664;2022-08-21T07:24:11;100453.96;;;10.67;72.66
38688;BME280;24444;53.216;-6.664;2022-08-21T07:26:39;100459.32;;;10.61;72.55
38688;BME280;24444;53.216;-6.664;2022-08-21T07:29:06;100464.11;;;9.26;76.23
38688;BME280;24444;53.216;-6.664;2022-08-21T07:31:33;100474.32;;;8.56;82.31
38688;BME280;24444;53.216;-6.664;2022-08-21T07:34:01;100475.32;;;8.67;84.03
38688;BME280;24444;53.216;-6.664;2022-08-21T07:36:29;100472.67;;;9.44;83.54
38688;BME280;24444;53.216;-6.664;2022-08-21T07:38:56;100475.19;;;10.19;79.79
38688;BME280;24444;53.216;-6.664;2022-08-21T07:41:26;100468.10;;;10.74;76.74
38688;BME280;24444;53.216;-6.664;2022-08-21T07:43:54;100468.94;;;10.99;74.72
38688;BME280;24444;53.216;-6.664;2022-08-21T07:46:21;100470.95;;;10.00;73.89
38688;BME280;24444;53.216;-6.664;2022-08-21T07:48:49;100472.70;;;8.99;81.36
38688;BME280;24444;53.216;-6.664;2022-08-21T07:51:18;100474.99;;;9.15;82.28
38688;BME280;24444;53.216;-6.664;2022-08-21T07:53:49;100478.98;;;9.58;82.77
38688;BME280;24444;53.216;-6.664;2022-08-21T07:56:18;100480.70;;;8.65;85.32
38688;BME280;24444;53.216;-6.664;2022-08-21T07:58:46;100480.92;;;8.64;86.88
38688;BME280;24444;53.216;-6.664;2022-08-21T08:01:14;100482.72;;;9.27;85.95
38688;BME280;24444;53.216;-6.664;2022-08-21T08:03:41;100486.22;;;9.31;83.35
38688;BME280;24444;53.216;-6.664;2022-08-21T08:06:09;100489.32;;;10.29;80.43
38688;BME280;24444;53.216;-6.664;2022-08-21T08:08:36;100488.58;;;9.70;78.69
38688;BME280;24444;53.216;-6.664;2022-08-21T08:11:04;100489.31;;;10.04;79.41
38688;BME280;24444;53.216;-6.664;2022-08-21T08:13:31;100486.84;;;11.00;74.76
38688;BME280;24444;53.216;-6.664;2022-08-21T08:15:59;100489.43;;;10.38;76.87
38688;BME280;24444;53.216;-6.664;2022-08-21T08:18:26;100486.63;;;11.14;74.60
38688;BME280;24444;53.216;-6.664;2022-08-21T08:20:53;100485.18;;;11.42;70.84
38688;BME280;24444;53.216;-6.664;2022-08-21T08:23:21;100482.40;;;13.16;68.35
38688;BME280;24444;53.216;-6.664;2022-08-21T08:25:48;100481.62;;;13.55;63.31
38688;BME280;24444;53.216;-6.664;2022-08-21T08:28:16;100477.88;;;10.31;71.02
38688;BME280;24444;53.216;-6.664;2022-08-21T08:30:44;100474.08;;;10.84;72.68
38688;BME280;24444;53.216;-6.664;2022-08-21T08:33:11;100476.47;;;11.28;72.00
38688;BME280;24444;53.216;-6.664;2022-08-21T08:35:38;100470.15;;;11.98;70.44
38688;BME280;24444;53.216;-6.664;2022-08-21T08:38:06;100470.38;;;12.80;67.15
38688;BME280;24444;53.216;-6.664;2022-08-21T08:40:39;100470.44;;;12.01;67.75
38688;BME280;24444;53.216;-6.664;2022-08-21T08:43:10;100472.89;;;13.37;66.55
38688;BME280;24444;53.216;-6.664;2022-08-21T08:45:40;100474.92;;;13.06;63.48
38688;BME280;24444;53.216;-6.664;2022-08-21T08:48:10;100474.99;;;13.19;62.70
38688;BME280;24444;53.216;-6.664;2022-08-21T08:50:44;100471.90;;;14.43;59.00
38688;BME280;24444;53.216;-6.664;2022-08-21T08:53:18;100464.79;;;17.21;51.66
38688;BME280;24444;53.216;-6.664;2022-08-21T08:55:51;100465.24;;;16.95;46.08
38688;BME280;24444;53.216;-6.664;2022-08-21T08:58:23;100469.70;;;16.52;43.84
38688;BME280;24444;53.216;-6.664;2022-08-21T09:00:53;100471.93;;;16.61;43.87
38688;BME280;24444;53.216;-6.664;2022-08-21T09:03:23;100477.61;;;16.97;43.76
38688;BME280;24444;53.216;-6.664;2022-08-21T09:05:57;100479.53;;;16.25;41.92
38688;BME280;24444;53.216;-6.664;2022-08-21T09:08:38;100469.07;;;14.90;43.11
38688;BME280;24444;53.216;-6.664;2022-08-21T09:11:15;100458.73;;;15.17;43.82
38688;BME280;24444;53.216;-6.664;2022-08-21T09:13:53;100454.86;;;16.85;40.66
38688;BME280;24444;53.216;-6.664;2022-08-21T09:16:29;100460.15;;;16.47;39.87
38688;BME280;24444;53.216;-6.664;2022-08-21T09:19:04;100459.74;;;17.97;38.18
38688;BME280;24444;53.216;-6.664;2022-08-21T09:21:41;100464.87;;;17.95;39.33
38688;BME280;24444;53.216;-6.664;2022-08-21T09:24:21;100463.17;;;20.23;34.65
38688;BME280;24444;53.216;-6.664;2022-08-21T09:26:56;100467.24;;;17.72;34.62
38688;BME280;24444;53.216;-6.664;2022-08-21T09:29:26;100471.58;;;17.97;36.73
38688;BME280;24444;53.216;-6.664;2022-08-21T09:31:54;100470.19;;;19.07;37.54
38688;BME280;24444;53.216;-6.664;2022-08-21T09:34:26;100475.09;;;16.12;37.37
38688;BME280;24444;53.216;-6.664;2022-08-21T09:36:53;100470.20;;;15.17;38.72
38688;BME280;24444;53.216;-6.664;2022-08-21T09:39:25;100469.60;;;14.17;41.52
38688;BME280;24444;53.216;-6.664;2022-08-21T09:41:56;100463.73;;;16.98;42.60
38688;BME280;24444;53.216;-6.664;2022-08-21T09:44:27;100470.53;;;17.58;41.32
38688;BME280;24444;53.216;-6.664;2022-08-21T09:46:56;100478.53;;;16.93;39.42
38688;BME280;24444;53.216;-6.664;2022-08-21T09:49:28;100473.41;;;16.65;39.52
38688;BME280;24444;53.216;-6.664;2022-08-21T09:51:56;100470.93;;;15.88;40.09
38688;BME280;24444;53.216;-6.664;2022-08-21T09:54:29;100472.49;;;15.56;40.44
38688;BME280;24444;53.216;-6.664;2022-08-21T09:56:58;100470.86;;;15.89;40.04
38688;BME280;24444;53.216;-6.664;2022-08-21T09:59:32;100468.91;;;15.81;39.92
38688;BME280;24444;53.216;-6.664;2022-08-21T10:02:03;100465.14;;;16.33;40.06
38688;BME280;24444;53.216;-6.664;2022-08-21T10:04:41;100466.87;;;18.69;37.59
38688;BME280;24444;53.216;-6.664;2022-08-21T10:07:20;100459.13;;;15.06;35.84
38688;BME280;24444;53.216;-6.664;2022-08-21T10:09:59;100458.97;;;17.74;34.90
38688;BME280;24444;53.216;-6.664;2022-08-21T10:12:31;100455.36;;;18.90;32.80
38688;BME280;24444;53.216;-6.664;2022-08-21T10:15:06;100451.45;;;18.86;32.28
38688;BME280;24444;53.216;-6.664;2022-08-21T10:17:42;100451.48;;;16.65;35.46
38688;BME280;24444;53.216;-6.664;2022-08-21T10:20:17;100450.78;;;17.85;35.69
38688;BME280;24444;53.216;-6.664;2022-08-21T10:22:50;100450.22;;;17.56;35.36
38688;BME280;24444;53.216;-6.664;2022-08-21T10:25:25;100449.87;;;18.92;35.24
38688;BME280;24444;53.216;-6.664;2022-08-21T10:27:59;100446.03;;;18.58;33.94
38688;BME280;24444;53.216;-6.664;2022-08-21T10:30:39;100445.88;;;18.15;33.79
38688;BME280;24444;53.216;-6.664;2022-08-21T10:33:17;100451.49;;;17.25;33.89
38688;BME280;24444;53.216;-6.664;2022-08-21T10:35:53;100454.14;;;15.67;35.39
38688;BME280;24444;53.216;-6.664;2022-08-21T10:38:39;100460.76;;;17.18;34.85
38688;BME280;24444;53.216;-6.664;2022-08-21T10:41:15;100461.05;;;16.07;35.43
38688;BME280;24444;53.216;-6.664;2022-08-21T10:43:56;100458.66;;;17.44;34.82
38688;BME280;24444;53.216;-6.664;2022-08-21T10:46:36;100455.43;;;18.80;33.47
38688;BME280;24444;53.216;-6.664;2022-08-21T10:49:13;100452.97;;;16.52;34.34
38688;BME280;24444;53.216;-6.664;2022-08-21T10:51:52;100454.76;;;18.99;35.28
38688;BME280;24444;53.216;-6.664;2022-08-21T10:54:29;100454.65;;;17.85;33.75
38688;BME280;24444;53.216;-6.664;2022-08-21T10:57:05;100451.22;;;16.57;35.61
38688;BME280;24444;53.216;-6.664;2022-08-21T10:59:41;100448.15;;;18.94;33.40
38688;BME280;24444;53.216;-6.664;2022-08-21T11:02:15;100441.97;;;18.18;33.17
38688;BME280;24444;53.216;-6.664;2022-08-21T11:04:52;100440.62;;;19.96;31.30
38688;BME280;24444;53.216;-6.664;2022-08-21T11:07:25;100438.60;;;19.82;30.42
38688;BME280;24444;53.216;-6.664;2022-08-21T11:09:56;100442.57;;;20.39;30.37
38688;BME280;24444;53.216;-6.664;2022-08-21T11:12:31;100443.68;;;19.72;30.84
38688;BME280;24444;53.216;-6.664;2022-08-21T11:15:07;100446.66;;;21.00;31.92
38688;BME280;24444;53.216;-6.664;2022-08-21T11:17:43;100447.34;;;20.37;31.02
38688;BME280;24444;53.216;-6.664;2022-08-21T11:20:20;100441.94;;;19.12;30.70
38688;BME280;24444;53.216;-6.664;2022-08-21T11:22:56;100442.37;;;18.01;32.60
38688;BME280;24444;53.216;-6.664;2022-08-21T11:25:29;100445.14;;;18.93;30.91
38688;BME280;24444;53.216;-6.664;2022-08-21T11:28:02;100441.30;;;19.89;32.42
38688;BME280;24444;53.216;-6.664;2022-08-21T11:30:40;100439.31;;;19.64;31.42
38688;BME280;24444;53.216;-6.664;2022-08-21T11:33:24;100442.57;;;20.10;31.32
38688;BME280;24444;53.216;-6.664;2022-08-21T11:39:48;100441.40;;;20.07;32.25
38688;BME280;24444;53.216;-6.664;2022-08-21T11:42:25;100436.80;;;17.83;31.17
38688;BME280;24444;53.216;-6.664;2022-08-21T11:45:05;100436.00;;;18.38;31.73
38688;BME280;24444;53.216;-6.664;2022-08-21T11:47:41;100429.41;;;18.91;31.59
38688;BME280;24444;53.216;-6.664;2022-08-21T11:50:15;100427.17;;;18.85;31.83
38688;BME280;24444;53.216;-6.664;2022-08-21T11:52:47;100430.77;;;16.87;32.50
38688;BME280;24444;53.216;-6.664;2022-08-21T11:55:19;100432.23;;;16.14;34.10
38688;BME280;24444;53.216;-6.664;2022-08-21T11:57:54;100431.42;;;15.27;35.43
38688;BME280;24444;53.216;-6.664;2022-08-21T12:00:26;100434.53;;;17.69;33.78
38688;BME280;24444;53.216;-6.664;2022-08-21T12:02:58;100433.15;;;19.58;34.08
38688;BME280;24444;53.216;-6.664;2022-08-21T12:05:35;100431.29;;;19.54;32.64
38688;BME280;24444;53.216;-6.664;2022-08-21T12:08:07;100430.79;;;20.39;31.28
38688;BME280;24444;53.216;-6.664;2022-08-21T12:10:39;100424.79;;;21.03;30.32
38688;BME280;24444;53.216;-6.664;2022-08-21T12:13:09;100422.38;;;20.31;29.57
38688;BME280;24444;53.216;-6.664;2022-08-21T12:15:38;100424.27;;;18.02;30.70
38688;BME280;24444;53.216;-6.664;2022-08-21T12:18:20;100421.22;;;18.63;30.85
38688;BME280;24444;53.216;-6.664;2022-08-21T12:21:01;100415.22;;;18.43;30.74
38688;BME280;24444;53.216;-6.664;2022-08-21T12:23:31;100412.34;;;19.61;30.40
38688;BME280;24444;53.216;-6.664;2022-08-21T12:26:03;100421.13;;;16.53;31.47
38688;BME280;24444;53.216;-6.664;2022-08-21T12:28:37;100424.78;;;17.28;32.12
38688;BME280;24444;53.216;-6.664;2022-08-21T12:31:18;100424.59;;;18.77;30.88
38688;BME280;24444;53.216;-6.664;2022-08-21T12:33:53;100427.39;;;16.77;31.06
38688;BME280;24444;53.216;-6.664;2022-08-21T12:36:24;100432.44;;;18.15;30.95
38688;BME280;24444;53.216;-6.664;2022-08-21T12:38:56;100427.25;;;17.06;31.56
38688;BME280;24444;53.216;-6.664;2022-08-21T12:41:28;100436.04;;;17.35;33.42
38688;BME280;24444;53.216;-6.664;2022-08-21T12:44:00;100436.29;;;19.33;31.26
38688;BME280;24444;53.216;-6.664;2022-08-21T12:46:34;100435.68;;;18.42;30.19
38688;BME280;24444;53.216;-6.664;2022-08-21T12:49:08;100430.84;;;18.95;29.89
38688;BME280;24444;53.216;-6.664;2022-08-21T12:51:49;100426.12;;;19.25;30.90
38688;BME280;24444;53.216;-6.664;2022-08-21T12:54:25;100421.47;;;19.65;32.35
38688;BME280;24444;53.216;-6.664;2022-08-21T12:56:59;100418.20;;;18.53;29.77
38688;BME280;24444;53.216;-6.664;2022-08-21T12:59:27;100413.75;;;16.24;32.00
38688;BME280;24444;53.216;-6.664;2022-08-21T13:01:55;100413.35;;;17.09;32.87